createdAt,value
2018-06-04T00:00:34.465Z,101150.12
2018-06-04T00:03:09.343Z,101148.43
2018-06-04T00:05:44.653Z,101145.48
2018-06-04T00:08:19.448Z,101144.45
2018-06-04T00:10:54.462Z,101138.95
2018-06-04T00:13:29.514Z,101137.38
2018-06-04T00:16:04.202Z,101133.40
2018-06-04T00:18:38.462Z,101126.39
2018-06-04T00:21:13.314Z,101130.78
2018-06-04T00:23:48.226Z,101123.91
2018-06-04T00:26:23.410Z,101125.41
2018-06-04T00:28:58.158Z,101125.00
2018-06-04T00:31:33.325Z,101128.35
2018-06-04T00:34:08.551Z,101124.17
2018-06-04T00:36:43.951Z,101125.51
2018-06-04T00:39:18.645Z,101130.77
2018-06-04T00:41:54.429Z,101129.70
2018-06-04T00:44:29.892Z,101122.05
2018-06-04T00:47:05.046Z,101127.84
2018-06-04T00:49:39.310Z,101123.24
2018-06-04T00:52:14.353Z,101121.72
2018-06-04T00:54:49.326Z,101123.89
2018-06-04T00:57:23.760Z,101126.06
2018-06-04T00:59:58.753Z,101120.42
2018-06-04T01:02:33.578Z,101121.14
2018-06-04T01:05:08.678Z,101111.61
2018-06-04T01:07:43.890Z,101108.53
2018-06-04T01:10:18.662Z,101113.97
2018-06-04T01:12:54.036Z,101105.45
2018-06-04T01:15:29.175Z,101101.00
2018-06-04T01:18:03.694Z,101101.81
2018-06-04T01:20:38.574Z,101100.75
2018-06-04T01:23:14.178Z,101098.84
2018-06-04T01:25:49.012Z,101093.85
2018-06-04T01:28:23.937Z,101092.81
2018-06-04T01:30:58.939Z,101091.94
2018-06-04T01:33:33.585Z,101095.34
2018-06-04T01:36:08.655Z,101095.28
2018-06-04T01:38:43.781Z,101095.57
2018-06-04T01:41:18.772Z,101099.81
2018-06-04T01:43:53.854Z,101099.33
2018-06-04T01:46:29.286Z,101102.54
2018-06-04T01:49:04.466Z,101096.73
2018-06-04T01:51:39.858Z,101088.37
2018-06-04T01:54:15.007Z,101092.75
2018-06-04T01:56:50.241Z,101088.63
2018-06-04T01:59:24.911Z,101087.17
2018-06-04T02:01:59.497Z,101089.27
2018-06-04T02:04:33.874Z,101084.98
2018-06-04T02:07:08.735Z,101088.00
2018-06-04T02:09:43.901Z,101086.31
2018-06-04T02:12:18.758Z,101086.44
2018-06-04T02:14:53.828Z,101092.89
2018-06-04T02:17:28.709Z,101092.69
2018-06-04T02:20:03.705Z,101082.93
2018-06-04T02:22:38.567Z,101080.27
2018-06-04T02:25:13.398Z,101084.63
2018-06-04T02:27:48.138Z,101075.55
2018-06-04T02:30:22.986Z,101084.52
2018-06-04T02:32:57.936Z,101077.95
2018-06-04T02:35:32.815Z,101074.67
2018-06-04T02:38:08.097Z,101079.91
2018-06-04T02:40:42.999Z,101076.28
2018-06-04T02:43:17.771Z,101078.44
2018-06-04T02:45:52.829Z,101080.28
2018-06-04T02:48:27.379Z,101077.36
2018-06-04T02:51:02.811Z,101071.92
2018-06-04T02:53:37.946Z,101074.64
2018-06-04T02:56:13.415Z,101073.08
2018-06-04T02:58:48.920Z,101067.77
2018-06-04T03:01:23.974Z,101072.52
2018-06-04T03:03:59.316Z,101076.72
2018-06-04T03:06:33.911Z,101066.16
2018-06-04T03:09:09.341Z,101068.80
2018-06-04T03:11:44.588Z,101062.95
2018-06-04T03:14:19.313Z,101063.67
2018-06-04T03:16:54.512Z,101061.91
2018-06-04T03:19:29.922Z,101063.05
2018-06-04T03:22:05.068Z,101060.97
2018-06-04T03:24:40.114Z,101063.90
2018-06-04T03:27:14.790Z,101055.75
2018-06-04T03:29:49.298Z,101063.26
2018-06-04T03:32:24.368Z,101065.55
2018-06-04T03:34:59.718Z,101066.74
2018-06-04T03:37:34.267Z,101064.39
2018-06-04T03:40:09.698Z,101055.59
2018-06-04T03:42:44.178Z,101058.00
2018-06-04T03:45:18.990Z,101056.00
2018-06-04T03:47:54.014Z,101055.88
2018-06-04T03:50:28.992Z,101059.95
2018-06-04T03:53:03.782Z,101062.31
2018-06-04T03:55:38.849Z,101062.31
2018-06-04T03:58:13.601Z,101068.84
2018-06-04T04:00:48.463Z,101064.48
2018-06-04T04:03:23.711Z,101066.12
2018-06-04T04:05:58.478Z,101056.25
2018-06-04T04:08:33.588Z,101051.38
2018-06-04T04:11:08.681Z,101047.39
2018-06-04T04:13:43.819Z,101056.47
2018-06-04T04:16:18.137Z,101053.31
2018-06-04T04:18:53.513Z,101053.39
2018-06-04T04:21:28.798Z,101054.81
2018-06-04T04:24:03.542Z,101049.38
2018-06-04T04:26:38.125Z,101056.69
2018-06-04T04:29:12.822Z,101053.83
2018-06-04T04:31:47.877Z,101055.38
2018-06-04T04:34:23.268Z,101062.90
2018-06-04T04:36:58.045Z,101062.42
2018-06-04T04:39:32.741Z,101064.10
2018-06-04T04:42:07.334Z,101069.84
2018-06-04T04:44:42.601Z,101074.72
2018-06-04T04:47:17.977Z,101073.41
2018-06-04T04:49:52.915Z,101065.47
2018-06-04T04:52:27.765Z,101066.64
2018-06-04T04:55:02.958Z,101065.77
2018-06-04T04:57:37.793Z,101066.19
2018-06-04T05:00:12.852Z,101062.72
2018-06-04T05:02:47.785Z,101063.94
2018-06-04T05:05:22.513Z,101066.80
2018-06-04T05:07:57.284Z,101069.84
2018-06-04T05:10:31.864Z,101060.41
2018-06-04T05:13:07.538Z,101057.41
2018-06-04T05:15:42.640Z,101054.59
2018-06-04T05:18:16.883Z,101048.16
2018-06-04T05:20:51.894Z,101043.07
2018-06-04T05:23:27.275Z,101046.34
2018-06-04T05:26:02.252Z,101051.27
2018-06-04T05:28:37.558Z,101055.68
2018-06-04T05:31:12.922Z,101053.97
2018-06-04T05:33:47.323Z,101055.16
2018-06-04T05:36:22.326Z,101052.96
2018-06-04T05:38:57.197Z,101045.47
2018-06-04T05:41:32.169Z,101047.19
2018-06-04T05:44:07.183Z,101055.35
2018-06-04T05:46:42.211Z,101053.80
2018-06-04T05:49:17.031Z,101050.23
2018-06-04T05:51:51.742Z,101047.19
2018-06-04T05:54:26.994Z,101043.64
2018-06-04T05:57:01.495Z,101039.78
2018-06-04T05:59:36.602Z,101042.09
2018-06-04T06:02:11.881Z,101043.80
2018-06-04T06:04:46.614Z,101043.86
2018-06-04T06:07:21.342Z,101043.06
2018-06-04T06:09:56.250Z,101043.53
2018-06-04T06:12:30.865Z,101037.15
2018-06-04T06:15:05.712Z,101039.42
2018-06-04T06:17:40.893Z,101035.03
2018-06-04T06:20:15.669Z,101039.95
2018-06-04T06:22:50.069Z,101045.30
2018-06-04T06:25:24.841Z,101044.70
2018-06-04T06:28:00.102Z,101036.28
2018-06-04T06:30:35.554Z,101037.70
2018-06-04T06:33:10.660Z,101037.36
2018-06-04T06:35:46.031Z,101038.41
2018-06-04T06:38:21.275Z,101035.73
2018-06-04T06:40:56.642Z,101033.67
2018-06-04T06:43:31.731Z,101034.45
2018-06-04T06:46:06.838Z,101036.77
2018-06-04T06:48:41.710Z,101036.29
2018-06-04T06:51:16.993Z,101039.12
2018-06-04T06:53:51.870Z,101036.63
2018-06-04T06:56:26.601Z,101044.33
2018-06-04T06:59:02.153Z,101043.66
2018-06-04T07:01:37.414Z,101039.58
2018-06-04T07:04:12.538Z,101049.55
2018-06-04T07:06:47.117Z,101044.98
2018-06-04T07:09:22.476Z,101043.97
2018-06-04T07:11:56.891Z,101047.92
2018-06-04T07:14:31.793Z,101047.23
2018-06-04T07:17:06.914Z,101049.39
2018-06-04T07:19:42.157Z,101052.64
2018-06-04T07:22:17.039Z,101053.13
2018-06-04T07:24:51.991Z,101055.46
2018-06-04T07:27:26.623Z,101051.80
2018-06-04T07:30:00.937Z,101054.30
2018-06-04T07:32:35.655Z,101049.90
2018-06-04T07:35:11.111Z,101059.68
2018-06-04T07:37:45.633Z,101051.23
2018-06-04T07:40:20.887Z,101055.94
2018-06-04T07:42:56.116Z,101050.17
2018-06-04T07:45:30.939Z,101048.36
2018-06-04T07:48:05.709Z,101048.22
2018-06-04T07:50:41.010Z,101052.52
2018-06-04T07:53:15.846Z,101051.36
2018-06-04T07:55:50.471Z,101053.23
2018-06-04T07:58:26.388Z,101054.29
2018-06-04T08:01:00.865Z,101052.37
2018-06-04T08:03:35.917Z,101046.07
2018-06-04T08:06:10.570Z,101047.75
2018-06-04T08:08:45.834Z,101049.81
2018-06-04T08:11:20.749Z,101046.38
2018-06-04T08:13:55.557Z,101053.22
2018-06-04T08:16:30.789Z,101051.88
2018-06-04T08:19:05.980Z,101048.83
2018-06-04T08:21:41.130Z,101052.45
2018-06-04T08:24:15.770Z,101040.20
2018-06-04T08:26:50.745Z,101037.49
2018-06-04T08:29:25.255Z,101038.67
2018-06-04T08:31:59.493Z,101031.85
2018-06-04T08:34:34.493Z,101036.14
2018-06-04T08:37:09.019Z,101029.47
2018-06-04T08:39:44.215Z,101028.29
2018-06-04T08:42:19.003Z,101018.91
2018-06-04T08:44:53.767Z,101018.19
2018-06-04T08:47:28.159Z,101013.75
2018-06-04T08:50:02.442Z,101018.52
2018-06-04T08:52:37.649Z,101005.37
2018-06-04T08:55:12.338Z,101009.09
2018-06-04T08:57:47.454Z,101008.07
2018-06-04T09:00:22.647Z,101006.48
2018-06-04T09:02:57.472Z,101006.39
2018-06-04T09:05:32.664Z,101009.78
2018-06-04T09:08:07.673Z,101014.30
2018-06-04T09:10:42.482Z,101011.66
2018-06-04T09:13:17.808Z,101016.95
2018-06-04T09:15:52.785Z,101007.69
2018-06-04T09:18:27.631Z,101007.83
2018-06-04T09:21:02.366Z,101006.59
2018-06-04T09:23:37.413Z,101008.75
2018-06-04T09:26:12.747Z,101005.94
2018-06-04T09:28:47.563Z,101005.38
2018-06-04T09:31:22.573Z,101008.23
2018-06-04T09:33:57.541Z,101014.83
2018-06-04T09:36:32.702Z,101007.16
2018-06-04T09:39:08.653Z,101009.32
2018-06-04T09:41:43.640Z,101002.94
2018-06-04T09:44:18.858Z,101011.11
2018-06-04T09:46:54.534Z,101005.05
2018-06-04T09:49:28.956Z,101006.47
2018-06-04T09:52:05.441Z,101009.63
2018-06-04T09:54:39.879Z,101005.88
2018-06-04T09:57:14.916Z,101003.53
2018-06-04T09:59:50.029Z,101002.58
2018-06-04T10:02:24.808Z,101002.01
2018-06-04T10:04:59.591Z,100996.98
2018-06-04T10:07:34.918Z,100998.05
2018-06-04T10:10:18.802Z,100991.35
2018-06-04T10:12:53.230Z,100991.89
2018-06-04T10:15:27.902Z,100988.51
2018-06-04T10:18:03.273Z,100991.98
2018-06-04T10:20:38.234Z,100995.47
2018-06-04T10:23:13.181Z,100999.87
2018-06-04T10:25:47.607Z,100997.39
2018-06-04T10:28:22.890Z,100990.41
2018-06-04T10:30:57.337Z,101001.62
2018-06-04T10:33:32.078Z,100995.77
2018-06-04T10:36:07.265Z,101000.39
2018-06-04T10:38:42.345Z,100990.41
2018-06-04T10:41:17.719Z,101001.75
2018-06-04T10:43:52.314Z,100992.19
2018-06-04T10:46:27.699Z,100999.55
2018-06-04T10:49:03.438Z,100991.58
2018-06-04T10:51:37.988Z,100995.92
2018-06-04T10:54:12.956Z,100988.80
2018-06-04T10:56:48.337Z,100986.13
2018-06-04T10:59:22.910Z,100988.25
2018-06-04T11:01:57.806Z,100984.75
2018-06-04T11:04:32.709Z,100983.30
2018-06-04T11:07:07.340Z,100977.88
2018-06-04T11:09:42.303Z,100981.27
2018-06-04T11:12:17.286Z,100980.51
2018-06-04T11:14:52.421Z,100978.27
2018-06-04T11:17:27.165Z,100981.34
2018-06-04T11:20:01.593Z,100985.61
2018-06-04T11:22:36.305Z,100983.83
2018-06-04T11:25:11.403Z,100986.15
2018-06-04T11:27:46.197Z,100982.50
2018-06-04T11:30:21.856Z,100977.21
2018-06-04T11:32:56.573Z,100970.30
2018-06-04T11:35:31.510Z,100968.45
2018-06-04T11:38:07.063Z,100968.11
2018-06-04T11:40:41.926Z,100956.44
2018-06-04T11:43:16.414Z,100962.69
2018-06-04T11:45:51.574Z,100961.91
2018-06-04T11:48:26.274Z,100967.34
2018-06-04T11:51:01.507Z,100963.31
2018-06-04T11:53:36.567Z,100962.37
2018-06-04T11:56:11.705Z,100957.77
2018-06-04T11:58:46.446Z,100956.20
2018-06-04T12:01:21.388Z,100959.58
2018-06-04T12:03:56.357Z,100952.91
2018-06-04T12:06:31.569Z,100948.57
2018-06-04T12:09:07.782Z,100952.80
2018-06-04T12:11:43.210Z,100954.88
2018-06-04T12:14:18.156Z,100949.03
2018-06-04T12:16:53.040Z,100946.75
2018-06-04T12:19:27.837Z,100945.97
2018-06-04T12:22:02.465Z,100954.23
2018-06-04T12:24:37.682Z,100956.14
2018-06-04T12:27:12.609Z,100952.09
2018-06-04T12:29:48.079Z,100947.43
2018-06-04T12:32:23.530Z,100948.83
2018-06-04T12:34:59.257Z,100941.81
2018-06-04T12:37:34.197Z,100950.84
2018-06-04T12:40:09.542Z,100950.38
2018-06-04T12:42:43.844Z,100935.39
2018-06-04T12:45:19.001Z,100937.97
2018-06-04T12:47:54.077Z,100936.52
2018-06-04T12:50:29.256Z,100932.29
2018-06-04T12:53:03.581Z,100932.22
2018-06-04T12:55:38.402Z,100930.00
2018-06-04T12:58:13.653Z,100933.21
2018-06-04T13:00:48.887Z,100929.63
2018-06-04T13:03:23.612Z,100924.95
2018-06-04T13:05:58.749Z,100927.84
2018-06-04T13:08:33.442Z,100926.99
2018-06-04T13:11:08.034Z,100922.91
2018-06-04T13:13:43.090Z,100923.33
2018-06-04T13:16:18.178Z,100914.06
2018-06-04T13:18:53.549Z,100905.53
2018-06-04T13:21:28.423Z,100908.05
2018-06-04T13:24:03.203Z,100902.48
2018-06-04T13:26:38.004Z,100905.27
2018-06-04T13:29:13.312Z,100900.20
2018-06-04T13:31:47.913Z,100899.23
2018-06-04T13:34:22.509Z,100903.25
2018-06-04T13:36:57.266Z,100899.06
2018-06-04T13:39:32.247Z,100892.40
2018-06-04T13:42:07.542Z,100884.37
2018-06-04T13:44:43.022Z,100886.41
2018-06-04T13:47:18.522Z,100892.57
2018-06-04T13:49:53.359Z,100883.44
2018-06-04T13:52:28.597Z,100885.28
2018-06-04T13:55:03.599Z,100883.65
2018-06-04T13:57:38.498Z,100878.27
2018-06-04T14:00:13.501Z,100879.30
2018-06-04T14:02:48.786Z,100868.52
2018-06-04T14:05:23.918Z,100867.59
2018-06-04T14:07:59.168Z,100872.42
2018-06-04T14:10:34.212Z,100864.83
2018-06-04T14:13:08.989Z,100867.33
2018-06-04T14:15:44.118Z,100860.44
2018-06-04T14:18:19.073Z,100859.31
2018-06-04T14:20:54.409Z,100856.36
2018-06-04T14:23:29.222Z,100853.78
2018-06-04T14:26:04.662Z,100856.34
2018-06-04T14:28:39.164Z,100854.95
2018-06-04T14:31:14.121Z,100854.78
2018-06-04T14:33:48.865Z,100850.04
2018-06-04T14:36:24.045Z,100851.37
2018-06-04T14:38:58.422Z,100854.07
2018-06-04T14:41:33.286Z,100846.13
2018-06-04T14:44:08.465Z,100847.39
2018-06-04T14:46:43.592Z,100841.94
2018-06-04T14:49:18.672Z,100835.91
2018-06-04T14:51:54.078Z,100841.75
2018-06-04T14:54:28.721Z,100844.11
2018-06-04T14:57:03.751Z,100843.98
2018-06-04T14:59:38.157Z,100842.23
2018-06-04T15:02:12.985Z,100842.05
2018-06-04T15:04:47.169Z,100831.39
2018-06-04T15:07:22.273Z,100840.84
2018-06-04T15:09:57.876Z,100832.47
2018-06-04T15:12:32.745Z,100835.25
2018-06-04T15:15:08.273Z,100827.10
2018-06-04T15:17:43.342Z,100827.02
2018-06-04T15:20:18.369Z,100827.02
2018-06-04T15:22:53.545Z,100828.42
2018-06-04T15:25:28.424Z,100819.58
2018-06-04T15:28:04.026Z,100818.55
2018-06-04T15:30:38.887Z,100816.87
2018-06-04T15:33:13.877Z,100822.01
2018-06-04T15:35:48.905Z,100820.56
2018-06-04T15:38:23.968Z,100815.30
2018-06-04T15:40:59.260Z,100811.92
2018-06-04T15:43:34.150Z,100812.88
2018-06-04T15:46:09.585Z,100820.11
2018-06-04T15:48:44.189Z,100812.25
2018-06-04T15:51:19.297Z,100815.75
2018-06-04T15:53:54.498Z,100808.73
2018-06-04T15:56:29.569Z,100807.46
2018-06-04T15:59:04.340Z,100810.84
2018-06-04T16:01:39.797Z,100814.28
2018-06-04T16:04:14.773Z,100806.78
2018-06-04T16:06:49.165Z,100806.78
2018-06-04T16:09:24.581Z,100803.70
2018-06-04T16:12:00.058Z,100800.53
2018-06-04T16:14:34.595Z,100801.22
2018-06-04T16:17:09.669Z,100796.99
2018-06-04T16:19:44.521Z,100794.75
2018-06-04T16:22:19.253Z,100798.16
2018-06-04T16:24:53.433Z,100797.92
2018-06-04T16:27:28.808Z,100797.92
2018-06-04T16:30:03.712Z,100793.56
2018-06-04T16:32:38.920Z,100801.23
2018-06-04T16:35:13.665Z,100792.63
2018-06-04T16:37:49.399Z,100788.68
2018-06-04T16:40:24.921Z,100791.25
2018-06-04T16:43:00.078Z,100791.25
2018-06-04T16:45:35.221Z,100785.63
2018-06-04T16:48:10.201Z,100780.35
2018-06-04T16:50:44.717Z,100780.69
2018-06-04T16:53:19.876Z,100779.59
2018-06-04T16:55:54.149Z,100777.39
2018-06-04T16:58:29.216Z,100779.92
2018-06-04T17:01:04.181Z,100774.42
2018-06-04T17:03:38.959Z,100782.33
2018-06-04T17:06:13.702Z,100775.64
2018-06-04T17:08:48.931Z,100771.28
2018-06-04T17:11:23.654Z,100776.05
2018-06-04T17:13:58.277Z,100772.75
2018-06-04T17:16:33.281Z,100775.21
2018-06-04T17:19:08.576Z,100772.21
2018-06-04T17:21:44.200Z,100777.90
2018-06-04T17:24:19.185Z,100769.83
2018-06-04T17:26:54.334Z,100772.41
2018-06-04T17:29:29.620Z,100777.34
2018-06-04T17:32:04.634Z,100773.90
2018-06-04T17:34:39.732Z,100775.95
2018-06-04T17:37:14.430Z,100771.44
2018-06-04T17:39:49.010Z,100771.14
2018-06-04T17:42:24.461Z,100771.91
2018-06-04T17:44:58.986Z,100780.98
2018-06-04T17:47:34.574Z,100778.83
2018-06-04T17:50:09.066Z,100781.00
2018-06-04T17:52:44.034Z,100779.48
2018-06-04T17:55:19.519Z,100782.05
2018-06-04T17:57:54.589Z,100778.72
2018-06-04T18:00:29.383Z,100774.73
2018-06-04T18:03:04.584Z,100772.81
2018-06-04T18:05:39.536Z,100774.03
2018-06-04T18:08:14.389Z,100777.64
2018-06-04T18:10:49.053Z,100774.31
2018-06-04T18:13:24.273Z,100772.19
2018-06-04T18:15:58.989Z,100769.39
2018-06-04T18:18:33.821Z,100775.45
2018-06-04T18:21:08.810Z,100779.73
2018-06-04T18:23:43.810Z,100779.00
2018-06-04T18:26:19.123Z,100779.24
2018-06-04T18:28:54.173Z,100769.37
2018-06-04T18:31:29.410Z,100764.70
2018-06-04T18:34:04.807Z,100767.27
2018-06-04T18:36:40.001Z,100774.82
2018-06-04T18:39:14.773Z,100776.95
2018-06-04T18:41:49.977Z,100772.23
2018-06-04T18:44:25.205Z,100773.13
2018-06-04T18:47:00.269Z,100781.22
2018-06-04T18:49:34.994Z,100780.34
2018-06-04T18:52:10.088Z,100776.57
2018-06-04T18:54:45.585Z,100774.05
2018-06-04T18:57:20.181Z,100780.16
2018-06-04T18:59:54.813Z,100780.73
2018-06-04T19:02:31.117Z,100782.80
2018-06-04T19:05:06.033Z,100789.02
2018-06-04T19:07:40.948Z,100782.19
2018-06-04T19:10:15.448Z,100798.30
2018-06-04T19:12:50.929Z,100795.80
2018-06-04T19:15:25.832Z,100798.30
2018-06-04T19:18:00.781Z,100799.74
2018-06-04T19:20:35.474Z,100805.45
2018-06-04T19:23:10.203Z,100816.61
2018-06-04T19:25:45.558Z,100819.19
2018-06-04T19:28:20.456Z,100822.31
2018-06-04T19:30:55.140Z,100820.13
2018-06-04T19:33:30.570Z,100824.97
2018-06-04T19:36:05.918Z,100823.95
2018-06-04T19:38:40.745Z,100827.41
2018-06-04T19:41:16.037Z,100824.04
2018-06-04T19:43:51.466Z,100829.70
2018-06-04T19:46:26.312Z,100827.88
2018-06-04T19:49:01.782Z,100836.27
2018-06-04T19:51:36.458Z,100839.77
2018-06-04T19:54:11.572Z,100835.43
2018-06-04T19:56:47.250Z,100833.97
2018-06-04T19:59:22.202Z,100841.18
2018-06-04T20:01:57.073Z,100846.23
2018-06-04T20:04:32.222Z,100844.72
2018-06-04T20:07:07.365Z,100845.24
2018-06-04T20:09:42.657Z,100843.45
2018-06-04T20:12:18.021Z,100849.27
2018-06-04T20:14:52.778Z,100852.33
2018-06-04T20:17:27.761Z,100847.69
2018-06-04T20:20:03.673Z,100850.28
2018-06-04T20:22:38.368Z,100852.67
2018-06-04T20:25:13.350Z,100851.11
2018-06-04T20:27:48.714Z,100856.39
2018-06-04T20:30:23.174Z,100854.58
2018-06-04T20:32:57.901Z,100859.97
2018-06-04T20:35:33.117Z,100865.11
2018-06-04T20:38:08.158Z,100858.27
2018-06-04T20:40:43.187Z,100868.72
2018-06-04T20:43:17.803Z,100865.50
2018-06-04T20:45:52.685Z,100868.31
2018-06-04T20:48:27.689Z,100873.83
2018-06-04T20:51:02.783Z,100871.31
2018-06-04T20:53:38.024Z,100868.77
2018-06-04T20:56:13.187Z,100871.66
2018-06-04T20:58:47.542Z,100872.19
2018-06-04T21:01:22.461Z,100872.19
2018-06-04T21:03:57.413Z,100869.11
2018-06-04T21:06:32.044Z,100872.00
2018-06-04T21:09:07.337Z,100871.50
2018-06-04T21:11:42.110Z,100877.52
2018-06-04T21:14:17.200Z,100873.23
2018-06-04T21:16:51.718Z,100869.12
2018-06-04T21:19:26.295Z,100868.30
2018-06-04T21:22:01.377Z,100868.80
2018-06-04T21:24:36.829Z,100866.89
2018-06-04T21:27:11.770Z,100872.20
2018-06-04T21:29:46.570Z,100864.03
2018-06-04T21:32:21.830Z,100867.63
2018-06-04T21:34:57.449Z,100872.09
2018-06-04T21:37:31.810Z,100879.81
2018-06-04T21:40:06.945Z,100874.16
2018-06-04T21:42:41.935Z,100876.21
2018-06-04T21:45:16.788Z,100870.27
2018-06-04T21:47:51.420Z,100874.36
2018-06-04T21:50:26.280Z,100875.58
2018-06-04T21:53:01.510Z,100876.91
2018-06-04T21:55:36.118Z,100878.63
2018-06-04T21:58:11.141Z,100879.62
2018-06-04T22:00:46.010Z,100892.95
2018-06-04T22:03:21.202Z,100892.94
2018-06-04T22:05:56.662Z,100898.73
2018-06-04T22:08:31.800Z,100899.77
2018-06-04T22:11:06.884Z,100894.48
2018-06-04T22:13:41.757Z,100896.69
2018-06-04T22:16:17.109Z,100896.87
2018-06-04T22:21:39.959Z,100905.73
2018-06-04T22:24:15.232Z,100905.72
2018-06-04T22:26:50.021Z,100905.52
2018-06-04T22:29:42.240Z,100913.38
2018-06-04T22:32:17.789Z,100917.61
2018-06-04T22:34:53.847Z,100919.50
2018-06-04T22:37:29.808Z,100922.38
2018-06-04T22:40:05.580Z,100918.46
2018-06-04T22:42:40.921Z,100923.74
2018-06-04T22:45:16.391Z,100922.03
2018-06-04T22:47:51.000Z,100922.03
2018-06-04T22:50:25.626Z,100928.86
2018-06-04T22:53:00.058Z,100927.14
2018-06-04T22:55:35.115Z,100929.00
2018-06-04T22:58:10.153Z,100923.55
2018-06-04T23:00:44.948Z,100928.13
2018-06-04T23:03:19.729Z,100929.95
2018-06-04T23:05:54.226Z,100922.30
2018-06-04T23:08:29.943Z,100922.30
2018-06-04T23:11:04.996Z,100926.39
2018-06-04T23:13:39.506Z,100931.31
2018-06-04T23:16:14.962Z,100928.24
2018-06-04T23:18:49.884Z,100927.75
2018-06-04T23:21:24.852Z,100921.07
2018-06-04T23:23:59.674Z,100921.25
2018-06-04T23:26:34.702Z,100927.72
2018-06-04T23:29:09.997Z,100917.99
2018-06-04T23:31:45.100Z,100923.10
2018-06-04T23:34:20.124Z,100922.61
2018-06-04T23:36:55.045Z,100919.70
2018-06-04T23:39:29.867Z,100920.89
2018-06-04T23:42:04.923Z,100920.02
2018-06-04T23:44:39.915Z,100917.12
2018-06-04T23:47:14.717Z,100921.17
2018-06-04T23:49:49.371Z,100920.09
2018-06-04T23:52:24.456Z,100925.37
2018-06-04T23:54:59.489Z,100922.63
2018-06-04T23:57:35.285Z,100909.31
